sensor_id;sensor_type;location;lat;lon;timestamp;P1;durP1;ratioP1;P2;durP2;ratioP2
34290;SDS011;20553;47.544;7.586;2022-08-02T14:15:45;1.03;;;0.60;;
34290;SDS011;20553;47.544;7.586;2022-08-02T14:20:50;0.65;;;0.50;;
34290;SDS011;20553;47.544;7.586;2022-08-02T14:25:55;0.85;;;0.50;;
34290;SDS011;20553;47.544;7.586;2022-08-02T14:31:01;0.68;;;0.50;;
34290;SDS011;20553;47.544;7.586;2022-08-02T14:36:06;0.90;;;0.60;;
34290;SDS011;20553;47.544;7.586;2022-08-02T14:41:10;1.33;;;0.50;;
34290;SDS011;20553;47.544;7.586;2022-08-02T14:46:16;0.50;;;0.35;;
34290;SDS011;20553;47.544;7.586;2022-08-02T14:51:21;1.50;;;0.40;;
34290;SDS011;20553;47.544;7.586;2022-08-02T14:56:26;0.67;;;0.30;;
34290;SDS011;20553;47.544;7.586;2022-08-02T15:01:32;1.10;;;0.52;;
34290;SDS011;20553;47.544;7.586;2022-08-02T15:06:36;0.60;;;0.30;;
34290;SDS011;20553;47.544;7.586;2022-08-02T15:11:41;1.30;;;0.77;;
34290;SDS011;20553;47.544;7.586;2022-08-02T15:16:51;0.98;;;0.30;;
34290;SDS011;20553;47.544;7.586;2022-08-02T15:21:59;0.68;;;0.40;;
34290;SDS011;20553;47.544;7.586;2022-08-02T15:27:04;1.00;;;0.90;;
34290;SDS011;20553;47.544;7.586;2022-08-02T15:32:15;0.70;;;0.60;;
34290;SDS011;20553;47.544;7.586;2022-08-02T15:37:21;1.33;;;0.60;;
34290;SDS011;20553;47.544;7.586;2022-08-02T15:42:26;0.80;;;0.70;;
34290;SDS011;20553;47.544;7.586;2022-08-02T15:47:33;0.95;;;0.30;;
34290;SDS011;20553;47.544;7.586;2022-08-02T15:52:38;1.40;;;0.70;;
34290;SDS011;20553;47.544;7.586;2022-08-02T15:57:42;0.30;;;0.23;;
34290;SDS011;20553;47.544;7.586;2022-08-02T16:02:49;0.80;;;0.38;;
34290;SDS011;20553;47.544;7.586;2022-08-02T16:07:54;0.90;;;0.60;;
34290;SDS011;20553;47.544;7.586;2022-08-02T16:12:59;0.60;;;0.60;;
34290;SDS011;20553;47.544;7.586;2022-08-02T16:18:19;1.10;;;0.70;;
34290;SDS011;20553;47.544;7.586;2022-08-02T16:23:23;1.20;;;0.70;;
34290;SDS011;20553;47.544;7.586;2022-08-02T16:28:47;1.30;;;0.52;;
34290;SDS011;20553;47.544;7.586;2022-08-02T16:33:53;0.60;;;0.50;;
34290;SDS011;20553;47.544;7.586;2022-08-02T16:38:58;0.57;;;0.57;;
34290;SDS011;20553;47.544;7.586;2022-08-02T16:44:03;0.83;;;0.60;;
34290;SDS011;20553;47.544;7.586;2022-08-02T16:49:09;0.63;;;0.50;;
34290;SDS011;20553;47.544;7.586;2022-08-02T16:54:33;1.00;;;0.70;;
34290;SDS011;20553;47.544;7.586;2022-08-02T16:59:39;0.90;;;0.70;;
34290;SDS011;20553;47.544;7.586;2022-08-02T17:05:00;0.80;;;0.80;;
34290;SDS011;20553;47.544;7.586;2022-08-02T17:10:06;1.50;;;0.80;;
34290;SDS011;20553;47.544;7.586;2022-08-02T17:15:11;0.60;;;0.60;;
34290;SDS011;20553;47.544;7.586;2022-08-02T17:20:37;1.45;;;1.10;;
34290;SDS011;20553;47.544;7.586;2022-08-02T17:25:43;1.13;;;1.00;;
34290;SDS011;20553;47.544;7.586;2022-08-02T17:30:54;1.30;;;1.00;;
34290;SDS011;20553;47.544;7.586;2022-08-02T17:35:59;2.30;;;1.20;;
34290;SDS011;20553;47.544;7.586;2022-08-02T17:41:04;1.37;;;1.23;;
34290;SDS011;20553;47.544;7.586;2022-08-02T17:46:16;1.53;;;1.43;;
34290;SDS011;20553;47.544;7.586;2022-08-02T17:51:24;1.47;;;1.10;;
34290;SDS011;20553;47.544;7.586;2022-08-02T17:56:48;1.30;;;1.20;;
34290;SDS011;20553;47.544;7.586;2022-08-02T18:01:53;1.50;;;1.10;;
34290;SDS011;20553;47.544;7.586;2022-08-02T18:07:06;1.97;;;1.10;;
34290;SDS011;20553;47.544;7.586;2022-08-02T18:12:18;1.87;;;1.27;;
34290;SDS011;20553;47.544;7.586;2022-08-02T18:17:22;1.27;;;1.17;;
34290;SDS011;20553;47.544;7.586;2022-08-02T18:22:32;1.20;;;1.00;;
34290;SDS011;20553;47.544;7.586;2022-08-02T18:27:36;2.22;;;1.60;;
34290;SDS011;20553;47.544;7.586;2022-08-02T18:32:45;2.15;;;1.20;;
34290;SDS011;20553;47.544;7.586;2022-08-02T18:38:10;2.03;;;1.25;;
34290;SDS011;20553;47.544;7.586;2022-08-02T18:43:17;2.25;;;1.50;;
34290;SDS011;20553;47.544;7.586;2022-08-02T18:48:30;1.30;;;1.20;;
34290;SDS011;20553;47.544;7.586;2022-08-02T18:53:39;1.90;;;1.65;;
34290;SDS011;20553;47.544;7.586;2022-08-02T18:58:44;2.57;;;1.40;;
34290;SDS011;20553;47.544;7.586;2022-08-02T19:03:49;2.10;;;1.55;;
34290;SDS011;20553;47.544;7.586;2022-08-02T19:08:55;2.33;;;1.30;;
34290;SDS011;20553;47.544;7.586;2022-08-02T19:14:14;2.08;;;1.40;;
34290;SDS011;20553;47.544;7.586;2022-08-02T19:19:29;2.10;;;1.58;;
34290;SDS011;20553;47.544;7.586;2022-08-02T19:24:35;1.97;;;1.60;;
34290;SDS011;20553;47.544;7.586;2022-08-02T19:29:43;1.73;;;1.55;;
34290;SDS011;20553;47.544;7.586;2022-08-02T19:35:09;2.58;;;1.50;;
34290;SDS011;20553;47.544;7.586;2022-08-02T19:40:36;2.42;;;1.90;;
34290;SDS011;20553;47.544;7.586;2022-08-02T19:45:43;2.60;;;1.70;;
34290;SDS011;20553;47.544;7.586;2022-08-02T19:50:53;3.13;;;1.88;;
34290;SDS011;20553;47.544;7.586;2022-08-02T19:56:04;3.13;;;1.80;;
34290;SDS011;20553;47.544;7.586;2022-08-02T20:01:08;2.15;;;1.60;;
34290;SDS011;20553;47.544;7.586;2022-08-02T20:06:18;2.53;;;1.60;;
34290;SDS011;20553;47.544;7.586;2022-08-02T20:11:32;1.93;;;1.67;;
34290;SDS011;20553;47.544;7.586;2022-08-02T20:16:38;2.53;;;1.90;;
34290;SDS011;20553;47.544;7.586;2022-08-02T20:21:43;3.03;;;2.20;;
34290;SDS011;20553;47.544;7.586;2022-08-02T20:27:09;3.63;;;2.90;;
34290;SDS011;20553;47.544;7.586;2022-08-02T20:32:23;3.50;;;2.35;;
34290;SDS011;20553;47.544;7.586;2022-08-02T20:37:27;2.75;;;2.10;;
34290;SDS011;20553;47.544;7.586;2022-08-02T20:42:53;2.15;;;1.80;;
34290;SDS011;20553;47.544;7.586;2022-08-02T20:47:58;2.43;;;1.90;;
34290;SDS011;20553;47.544;7.586;2022-08-02T20:53:03;2.30;;;2.10;;
34290;SDS011;20553;47.544;7.586;2022-08-02T20:58:26;4.55;;;3.08;;
34290;SDS011;20553;47.544;7.586;2022-08-02T21:03:33;2.43;;;2.10;;
34290;SDS011;20553;47.544;7.586;2022-08-02T21:08:41;3.78;;;2.60;;
34290;SDS011;20553;47.544;7.586;2022-08-02T21:13:49;1.85;;;1.52;;
34290;SDS011;20553;47.544;7.586;2022-08-02T21:19:10;1.92;;;1.60;;
34290;SDS011;20553;47.544;7.586;2022-08-02T21:24:15;2.38;;;1.50;;
34290;SDS011;20553;47.544;7.586;2022-08-02T21:29:27;2.78;;;1.83;;
34290;SDS011;20553;47.544;7.586;2022-08-02T21:34:34;3.30;;;2.22;;
34290;SDS011;20553;47.544;7.586;2022-08-02T21:39:39;2.30;;;2.10;;
34290;SDS011;20553;47.544;7.586;2022-08-02T21:44:52;2.60;;;1.77;;
34290;SDS011;20553;47.544;7.586;2022-08-02T21:49:56;2.20;;;1.57;;
34290;SDS011;20553;47.544;7.586;2022-08-02T21:55:17;1.43;;;1.27;;
34290;SDS011;20553;47.544;7.586;2022-08-02T22:00:38;2.43;;;1.37;;
34290;SDS011;20553;47.544;7.586;2022-08-02T22:05:44;1.58;;;1.30;;
34290;SDS011;20553;47.544;7.586;2022-08-02T22:10:48;2.40;;;1.90;;
34290;SDS011;20553;47.544;7.586;2022-08-02T22:16:19;4.53;;;1.80;;
34290;SDS011;20553;47.544;7.586;2022-08-02T22:21:24;1.50;;;1.40;;
34290;SDS011;20553;47.544;7.586;2022-08-02T22:26:47;1.40;;;1.30;;
34290;SDS011;20553;47.544;7.586;2022-08-02T22:31:53;1.60;;;1.50;;
34290;SDS011;20553;47.544;7.586;2022-08-02T22:36:58;4.53;;;3.50;;
34290;SDS011;20553;47.544;7.586;2022-08-02T22:42:07;2.35;;;2.10;;
34290;SDS011;20553;47.544;7.586;2022-08-02T22:47:12;2.92;;;2.63;;
34290;SDS011;20553;47.544;7.586;2022-08-02T22:52:17;3.67;;;3.35;;
34290;SDS011;20553;47.544;7.586;2022-08-02T22:57:22;3.50;;;2.65;;
34290;SDS011;20553;47.544;7.586;2022-08-02T23:02:33;2.88;;;2.67;;
34290;SDS011;20553;47.544;7.586;2022-08-02T23:07:39;1.92;;;1.73;;
34290;SDS011;20553;47.544;7.586;2022-08-02T23:12:44;2.03;;;1.70;;
34290;SDS011;20553;47.544;7.586;2022-08-02T23:17:49;3.67;;;2.87;;
34290;SDS011;20553;47.544;7.586;2022-08-02T23:23:26;3.03;;;2.65;;
34290;SDS011;20553;47.544;7.586;2022-08-02T23:28:31;2.45;;;1.75;;
34290;SDS011;20553;47.544;7.586;2022-08-02T23:33:37;3.97;;;2.87;;
34290;SDS011;20553;47.544;7.586;2022-08-02T23:39:02;3.13;;;2.60;;
34290;SDS011;20553;47.544;7.586;2022-08-02T23:44:09;3.13;;;2.35;;
34290;SDS011;20553;47.544;7.586;2022-08-02T23:49:18;3.42;;;2.50;;
34290;SDS011;20553;47.544;7.586;2022-08-02T23:54:24;2.35;;;1.90;;
34290;SDS011;20553;47.544;7.586;2022-08-02T23:59:28;2.95;;;2.67;;
